Time;durP1;ratioP1;P1;durP2;ratioP2;P2;SDS_P1;SDS_P2;PMS_P1;PMS_P2;Temp;Humidity;BMP_temperature;BMP_pressure;BME280_temperature;BME280_humidity;BME280_pressure;Samples;Min_cycle;Max_cycle;Signal;HPM_P1;HPM_P2
2022/12/04 00:01:09;;;;;;;46.95;28.02;;;;;;;3.67;100.00;93945.47;5096827;28;20044;-70
2022/12/04 00:03:36;;;;;;;50.00;27.67;;;;;;;3.65;100.00;93943.06;5105894;28;20093;-70
2022/12/04 00:06:04;;;;;;;52.75;28.30;;;;;;;3.63;100.00;93944.97;5107999;28;20043;-71
2022/12/04 00:08:31;;;;;;;47.75;27.67;;;;;;;3.63;100.00;93950.03;5104160;28;20048;-71
2022/12/04 00:10:59;;;;;;;50.85;27.77;;;;;;;3.64;100.00;93951.63;5109938;28;20097;-71
2022/12/04 00:13:26;;;;;;;52.67;28.27;;;;;;;3.67;100.00;93955.63;5109291;28;20119;-70
2022/12/04 00:15:52;;;;;;;47.95;25.38;;;;;;;3.62;100.00;93951.00;5109943;28;20043;-70
2022/12/04 00:18:19;;;;;;;51.67;26.73;;;;;;;3.68;100.00;93954.66;5109538;28;20097;-70
2022/12/04 00:20:46;;;;;;;44.85;25.92;;;;;;;3.68;100.00;93963.09;5109157;28;20044;-70
2022/12/04 00:23:12;;;;;;;48.88;26.20;;;;;;;3.71;100.00;93954.38;5109805;28;20051;-70
2022/12/04 00:25:39;;;;;;;49.33;26.65;;;;;;;3.70;100.00;93956.13;5109716;28;20047;-70
2022/12/04 00:28:07;;;;;;;50.42;27.27;;;;;;;3.68;100.00;93949.59;5109400;28;20083;-70
2022/12/04 00:30:34;;;;;;;48.80;27.48;;;;;;;3.70;100.00;93960.41;5108718;28;20120;-70
2022/12/04 00:33:01;;;;;;;47.15;25.25;;;;;;;3.70;100.00;93961.19;5108606;28;20060;-70
2022/12/04 00:35:27;;;;;;;49.97;26.58;;;;;;;3.68;100.00;93952.13;5109333;28;20491;-71
2022/12/04 00:37:54;;;;;;;49.45;26.48;;;;;;;3.68;100.00;93950.41;5109993;28;20051;-70
2022/12/04 00:40:21;;;;;;;47.08;24.55;;;;;;;3.70;100.00;93957.88;5113120;28;20047;-70
2022/12/04 00:42:47;;;;;;;43.65;24.58;;;;;;;3.75;100.00;93963.28;5113475;28;20055;-70
2022/12/04 00:45:15;;;;;;;41.05;21.27;;;;;;;3.69;100.00;93964.69;5113386;28;20487;-70
2022/12/04 00:47:42;;;;;;;44.45;23.65;;;;;;;3.66;100.00;93957.34;5113198;28;20048;-70
2022/12/04 00:50:10;;;;;;;41.17;20.60;;;;;;;3.60;100.00;93958.75;5112882;28;20495;-70
2022/12/04 00:52:37;;;;;;;37.60;20.50;;;;;;;3.55;100.00;93955.06;5113436;28;20054;-70
2022/12/04 00:55:04;;;;;;;35.35;19.02;;;;;;;3.55;100.00;93960.94;5113228;28;20108;-70
2022/12/04 00:57:31;;;;;;;37.97;22.58;;;;;;;3.48;100.00;93963.25;5113407;28;20125;-70
2022/12/04 00:59:58;;;;;;;38.78;20.25;;;;;;;3.46;100.00;93954.19;5113237;28;20047;-70
2022/12/04 01:02:26;;;;;;;34.38;19.00;;;;;;;3.45;100.00;93957.69;5113347;28;20051;-70
2022/12/04 01:04:53;;;;;;;29.23;17.92;;;;;;;3.41;100.00;93954.66;5112768;28;20048;-70
2022/12/04 01:07:19;;;;;;;31.63;18.10;;;;;;;3.26;100.00;93928.16;5112772;28;20088;-70
2022/12/04 01:09:46;;;;;;;33.17;17.88;;;;;;;3.44;100.00;93951.00;5112760;28;20211;-71
2022/12/04 01:12:13;;;;;;;31.88;18.58;;;;;;;3.47;100.00;93946.44;5112942;28;20105;-70
2022/12/04 01:14:40;;;;;;;34.42;19.38;;;;;;;3.47;100.00;93943.09;5112732;28;20490;-70
2022/12/04 01:17:06;;;;;;;28.92;17.83;;;;;;;3.47;100.00;93945.63;5112692;28;20483;-70
2022/12/04 01:19:34;;;;;;;27.90;17.17;;;;;;;3.43;100.00;93944.34;5113018;28;20101;-70
2022/12/04 01:22:02;;;;;;;30.98;17.42;;;;;;;3.45;100.00;93940.72;5112811;28;20453;-69
2022/12/04 01:24:29;;;;;;;35.50;19.40;;;;;;;3.37;100.00;93929.69;5112157;28;20044;-69
2022/12/04 01:26:55;;;;;;;27.05;17.27;;;;;;;3.51;100.00;93943.59;5112754;28;20447;-69
2022/12/04 01:29:22;;;;;;;30.85;17.88;;;;;;;3.53;100.00;93945.06;5112404;28;20077;-70
2022/12/04 01:31:49;;;;;;;33.15;20.75;;;;;;;3.52;100.00;93945.97;5112312;28;20055;-70
2022/12/04 01:34:15;;;;;;;30.33;17.42;;;;;;;3.54;100.00;93946.66;5112588;28;20051;-69
2022/12/04 01:36:44;;;;;;;28.38;17.55;;;;;;;3.55;100.00;93949.97;5112520;28;20040;-70
2022/12/04 01:39:11;;;;;;;26.85;16.58;;;;;;;3.52;100.00;93951.06;5112182;28;20056;-70
2022/12/04 01:41:38;;;;;;;27.80;16.70;;;;;;;3.52;100.00;93940.13;5112597;28;20052;-70
2022/12/04 01:44:10;;;;;;;25.13;15.60;;;;;;;3.49;100.00;93946.28;5112763;28;20094;-70
2022/12/04 01:46:56;;;;;;;24.73;16.30;;;;;;;3.45;100.00;93940.72;5112551;28;20052;-70
2022/12/04 01:49:24;;;;;;;;;;;;;;;3.46;100.00;93944.03;5112275;28;20112;-69
2022/12/04 01:51:57;;;;;;;25.48;15.85;;;;;;;3.38;100.00;93939.69;5112225;28;19923;-70
2022/12/04 01:54:28;;;;;;;26.95;17.10;;;;;;;3.32;100.00;93936.00;5112144;28;20168;-70
2022/12/04 01:56:59;;;;;;;27.15;15.80;;;;;;;3.32;100.00;93925.84;5112300;28;20128;-69
2022/12/04 01:59:30;;;;;;;27.88;16.70;;;;;;;3.28;100.00;93927.09;5112065;28;20104;-69
2022/12/04 02:02:03;;;;;;;22.73;15.27;;;;;;;3.17;100.00;93927.31;5111882;28;20051;-69
2022/12/04 02:04:31;;;;;;;23.85;15.23;;;;;;;3.09;100.00;93932.31;5111723;28;20047;-69
2022/12/04 02:06:59;;;;;;;27.13;16.60;;;;;;;3.04;100.00;93922.59;5111828;28;20047;-69
2022/12/04 02:09:26;;;;;;;18.13;13.07;;;;;;;3.00;100.00;93926.38;5108429;28;20047;-69
2022/12/04 02:12:02;;;;;;;16.60;12.07;;;;;;;2.88;100.00;93921.50;5109862;28;20102;-69
2022/12/04 02:14:38;;;;;;;17.65;12.38;;;;;;;2.86;100.00;93925.94;5111202;28;20054;-70
2022/12/04 02:17:13;;;;;;;18.88;13.70;;;;;;;2.82;100.00;93923.84;5111757;28;20055;-70
2022/12/04 02:19:57;;;;;;;17.15;11.65;;;;;;;2.81;100.00;93923.03;5111757;28;20047;-69
2022/12/04 02:22:37;;;;;;;15.90;12.30;;;;;;;2.77;100.00;93924.25;5111435;28;20051;-69
2022/12/04 02:25:13;;;;;;;14.30;11.65;;;;;;;2.72;100.00;93914.53;5111355;28;20047;-69
2022/12/04 02:28:01;;;;;;;15.63;11.85;;;;;;;2.73;100.00;93918.66;5111599;28;20051;-69
2022/12/04 02:30:30;;;;;;;15.35;11.88;;;;;;;2.72;100.00;93912.00;5111337;28;20051;-70
2022/12/04 02:33:03;;;;;;;14.50;10.63;;;;;;;2.70;100.00;93910.53;5111289;28;20049;-69
2022/12/04 02:35:34;;;;;;;15.32;11.55;;;;;;;2.65;100.00;93909.22;5111303;28;20564;-70
2022/12/04 02:38:10;;;;;;;16.05;11.30;;;;;;;2.64;100.00;93900.03;5110646;28;20047;-70
2022/12/04 02:40:42;;;;;;;14.82;10.35;;;;;;;2.69;100.00;93914.84;5111192;28;20055;-70
2022/12/04 02:43:16;;;;;;;14.70;10.98;;;;;;;2.64;100.00;93917.78;5111128;28;20055;-70
2022/12/04 02:45:46;;;;;;;13.65;10.50;;;;;;;2.65;100.00;93918.59;5111348;28;20044;-70
2022/12/04 02:48:18;;;;;;;13.68;10.55;;;;;;;2.66;100.00;93921.00;5111262;28;20039;-70
2022/12/04 02:50:48;;;;;;;13.73;10.60;;;;;;;2.64;100.00;93911.94;5111219;28;20043;-70
2022/12/04 02:53:17;;;;;;;13.18;10.23;;;;;;;2.65;100.00;93914.31;5111137;28;20104;-70
2022/12/04 02:55:48;;;;;;;14.05;10.77;;;;;;;2.64;100.00;93911.94;5110905;28;20552;-70
2022/12/04 02:58:24;;;;;;;13.35;10.15;;;;;;;2.63;100.00;93912.84;5110770;28;20559;-70
2022/12/04 03:00:55;;;;;;;14.85;10.63;;;;;;;2.65;100.00;93916.06;5110312;28;20051;-69
2022/12/04 03:03:24;;;;;;;13.68;9.93;;;;;;;2.61;100.00;93909.66;5110570;28;20051;-69
2022/12/04 03:05:56;;;;;;;13.50;10.52;;;;;;;2.61;100.00;93905.41;5111081;28;20040;-70
2022/12/04 03:08:26;;;;;;;14.00;10.55;;;;;;;2.62;100.00;93908.72;5110575;28;20052;-70
2022/12/04 03:10:56;;;;;;;13.15;9.95;;;;;;;2.52;100.00;93893.56;5110868;28;20310;-70
2022/12/04 03:13:28;;;;;;;12.82;9.50;;;;;;;2.56;100.00;93899.97;5110669;28;20050;-70
2022/12/04 03:16:01;;;;;;;14.48;8.95;;;;;;;2.52;100.00;93899.47;5110927;28;20112;-70
2022/12/04 03:18:33;;;;;;;13.20;9.55;;;;;;;2.49;100.00;93898.91;5110487;28;20052;-70
2022/12/04 03:21:02;;;;;;;12.63;9.23;;;;;;;2.48;100.00;93902.41;5110700;28;20043;-69
2022/12/04 03:26:23;;;;;;;14.75;10.07;;;;;;;2.36;100.00;93899.28;5110444;28;20055;-69
2022/12/04 03:28:57;;;;;;;15.55;11.23;;;;;;;2.27;100.00;93896.63;5110106;28;20407;-69
2022/12/04 03:31:31;;;;;;;16.58;11.70;;;;;;;2.26;100.00;93896.78;5110253;28;20096;-69
2022/12/04 03:34:02;;;;;;;16.23;11.15;;;;;;;2.12;100.00;93885.38;5110074;28;20599;-69
2022/12/04 03:36:34;;;;;;;15.23;10.68;;;;;;;2.19;100.00;93893.22;5110060;28;20879;-70
2022/12/04 03:39:08;;;;;;;14.82;11.25;;;;;;;2.19;100.00;93894.03;5110076;28;20147;-69
2022/12/04 03:41:47;;;;;;;15.27;10.85;;;;;;;2.17;100.00;93900.94;5109925;28;20101;-69
2022/12/04 03:44:19;;;;;;;15.25;11.50;;;;;;;2.23;100.00;93897.84;5110226;28;20043;-69
2022/12/04 03:46:53;;;;;;;14.07;10.85;;;;;;;2.14;100.00;93869.06;5110233;28;20195;-70
2022/12/04 03:49:25;;;;;;;15.57;11.85;;;;;;;2.24;100.00;93896.13;5110172;28;20048;-70
2022/12/04 03:51:58;;;;;;;14.20;11.38;;;;;;;2.09;100.00;93888.19;5110016;28;20487;-69
2022/12/04 03:54:30;;;;;;;16.83;11.85;;;;;;;2.14;100.00;93902.03;5109851;28;20044;-71
2022/12/04 03:57:01;;;;;;;16.60;12.32;;;;;;;2.20;100.00;93902.41;5109949;28;20040;-70
2022/12/04 03:59:35;;;;;;;16.67;12.57;;;;;;;2.19;100.00;93901.63;5110025;28;20051;-70
2022/12/04 04:02:05;;;;;;;17.38;13.00;;;;;;;2.22;100.00;93895.47;5109790;28;20048;-70
2022/12/04 04:04:35;;;;;;;19.67;14.02;;;;;;;2.19;100.00;93890.69;5110227;28;20048;-70
2022/12/04 04:07:09;;;;;;;17.48;13.23;;;;;;;2.20;100.00;93893.09;5109865;28;20096;-70
2022/12/04 04:09:41;;;;;;;18.25;13.65;;;;;;;2.22;100.00;93903.09;5110052;28;20063;-70
2022/12/04 04:12:11;;;;;;;20.40;13.50;;;;;;;2.14;100.00;93898.72;5110420;28;20109;-70
2022/12/04 04:25:57;;;;;;;20.52;16.17;;;;;;;2.12;100.00;93908.19;5113280;28;20548;-69
2022/12/04 04:28:32;;;;;;;18.65;14.25;;;;;;;2.08;100.00;93899.28;5113502;28;20124;-69
2022/12/04 04:31:07;;;;;;;15.35;12.63;;;;;;;2.09;100.00;93906.72;5113567;28;20510;-69
2022/12/04 04:33:40;;;;;;;15.63;12.20;;;;;;;2.12;100.00;93913.25;5114042;28;20104;-69
2022/12/04 04:36:14;;;;;;;13.80;11.00;;;;;;;2.12;100.00;93908.97;5113695;28;20109;-69
2022/12/04 04:38:48;;;;;;;14.18;10.73;;;;;;;2.08;100.00;93910.19;5113522;28;20572;-69
2022/12/04 04:41:19;;;;;;;13.63;10.70;;;;;;;2.07;100.00;93910.31;5113063;28;20093;-69
2022/12/04 04:43:54;;;;;;;14.07;10.30;;;;;;;2.04;100.00;93929.16;5113639;28;20081;-70
2022/12/04 04:46:27;;;;;;;14.52;10.25;;;;;;;2.03;100.00;93934.38;5102839;28;20047;-69
2022/12/04 04:48:57;;;;;;;13.70;8.82;;;;;;;1.89;100.00;93905.22;5113334;28;20488;-70
2022/12/04 04:51:25;;;;;;;11.63;9.45;;;;;;;1.97;100.00;93925.56;5113002;28;20083;-70
2022/12/04 04:53:55;;;;;;;13.25;9.18;;;;;;;1.92;100.00;93933.59;5113356;28;20043;-70
2022/12/04 04:56:22;;;;;;;13.70;10.57;;;;;;;1.89;100.00;93941.47;5112939;28;20104;-70
2022/12/04 04:58:49;;;;;;;15.27;11.52;;;;;;;1.89;100.00;93940.69;5112895;28;20069;-70
2022/12/04 05:01:17;;;;;;;14.95;10.93;;;;;;;1.85;100.00;93946.00;5112904;28;20384;-69
2022/12/04 05:03:46;;;;;;;15.90;11.98;;;;;;;1.79;100.00;93943.22;5113083;28;20424;-70
2022/12/04 05:06:13;;;;;;;17.75;12.88;;;;;;;1.72;100.00;93937.94;5113035;28;20059;-69
2022/12/04 05:08:39;;;;;;;20.23;14.07;;;;;;;1.76;100.00;93946.81;5113323;28;20047;-69
2022/12/04 05:11:10;;;;;;;18.77;13.50;;;;;;;1.68;100.00;93941.66;5112831;28;20464;-69
2022/12/04 05:13:37;;;;;;;23.48;16.55;;;;;;;1.59;100.00;93944.06;5113113;28;20101;-69
2022/12/04 05:16:06;;;;;;;22.90;16.88;;;;;;;1.57;100.00;93947.69;5112824;27;20498;-70
2022/12/04 05:18:34;;;;;;;22.92;17.10;;;;;;;1.53;100.00;93954.75;5112714;28;20655;-69
2022/12/04 05:21:06;;;;;;;24.40;18.52;;;;;;;1.50;100.00;93952.50;5112659;28;20502;-70
2022/12/04 05:23:33;;;;;;;45.13;30.00;;;;;;;1.50;100.00;93949.16;5103331;28;20396;-70
2022/12/04 05:26:00;;;;;;;34.42;24.55;;;;;;;1.44;100.00;93946.22;5105935;28;20100;-69
2022/12/04 05:28:27;;;;;;;25.52;18.60;;;;;;;1.50;100.00;93949.97;5112663;28;20135;-69
2022/12/04 05:30:55;;;;;;;24.80;19.35;;;;;;;1.46;100.00;93939.31;5112452;28;20318;-69
2022/12/04 05:33:22;;;;;;;23.63;17.90;;;;;;;1.49;100.00;93937.44;5110015;28;20043;-70
2022/12/04 05:35:57;;;;;;;26.55;19.02;;;;;;;1.48;100.00;93948.50;5105187;28;20066;-70
2022/12/04 05:38:25;;;;;;;30.70;20.73;;;;;;;1.51;100.00;93964.22;5110744;28;20575;-70
2022/12/04 05:40:51;;;;;;;22.70;17.77;;;;;;;1.50;100.00;93960.09;5108160;28;20043;-71
2022/12/04 05:43:18;;;;;;;24.15;16.95;;;;;;;1.44;100.00;93953.03;5112066;28;20120;-71
2022/12/04 05:45:45;;;;;;;21.75;14.95;;;;;;;1.49;100.00;93958.50;5110568;28;20055;-70
2022/12/04 05:48:12;;;;;;;20.65;14.27;;;;;;;1.50;100.00;93960.09;5111615;28;20044;-70
2022/12/04 05:50:39;;;;;;;19.52;13.60;;;;;;;1.49;100.00;93952.63;5109032;28;20048;-70
2022/12/04 05:53:05;;;;;;;22.15;13.50;;;;;;;1.40;100.00;93942.38;5111445;28;20452;-70
2022/12/04 05:55:34;;;;;;;27.90;17.02;;;;;;;1.34;100.00;93937.84;5110736;28;20075;-70
2022/12/04 05:58:01;;;;;;;43.63;24.52;;;;;;;1.30;100.00;93942.38;5110214;28;20043;-71
2022/12/04 06:00:28;;;;;;;72.55;40.95;;;;;;;1.39;100.00;93953.41;5108506;28;20564;-71
2022/12/04 06:02:54;;;;;;;58.90;35.33;;;;;;;1.39;100.00;93945.81;5109003;28;20043;-71
2022/12/04 06:05:21;;;;;;;41.33;25.42;;;;;;;1.43;100.00;93948.91;5111371;28;20171;-70
2022/12/04 06:07:48;;;;;;;29.42;18.05;;;;;;;1.42;100.00;93943.03;5110221;28;20059;-70
2022/12/04 06:10:15;;;;;;;18.38;11.95;;;;;;;1.47;100.00;93945.16;5109844;28;20080;-70
2022/12/04 06:12:43;;;;;;;21.52;15.52;;;;;;;1.39;100.00;93948.34;5110115;28;20047;-71
2022/12/04 06:15:12;;;;;;;21.38;14.20;;;;;;;1.43;100.00;93948.91;5111320;28;20403;-70
2022/12/04 06:17:39;;;;;;;19.65;14.38;;;;;;;1.53;100.00;93933.69;5111294;28;20044;-70
2022/12/04 06:20:07;;;;;;;15.73;11.10;;;;;;;1.54;100.00;93927.69;5110804;28;20139;-70
2022/12/04 06:22:34;;;;;;;20.33;14.13;;;;;;;1.66;100.00;93935.94;5110938;28;20048;-71
2022/12/04 06:25:01;;;;;;;38.38;23.83;;;;;;;1.60;100.00;93934.75;5110939;28;20097;-71
2022/12/04 06:27:27;;;;;;;39.03;23.17;;;;;;;1.64;100.00;93943.69;5111026;27;20552;-71
2022/12/04 06:29:56;;;;;;;48.15;28.60;;;;;;;1.68;100.00;93947.53;5111074;28;20045;-70
2022/12/04 06:32:22;;;;;;;49.80;30.45;;;;;;;1.73;100.00;93947.91;5106943;28;20052;-71
2022/12/04 06:34:52;;;;;;;52.42;32.75;;;;;;;1.77;100.00;93950.19;5095984;28;20152;-70
2022/12/04 06:37:20;;;;;;;56.45;34.22;;;;;;;1.81;100.00;93949.75;5106558;28;20044;-70
2022/12/04 06:39:47;;;;;;;42.17;28.48;;;;;;;1.93;100.00;93957.19;5110971;28;20047;-70
2022/12/04 06:42:14;;;;;;;47.88;33.15;;;;;;;2.04;100.00;93949.41;5111553;28;20112;-71
2022/12/04 06:44:40;;;;;;;43.10;31.23;;;;;;;2.12;100.00;93948.72;5111443;28;20043;-70
2022/12/04 06:47:09;;;;;;;39.83;30.02;;;;;;;2.21;100.00;93963.13;5110986;28;20055;-70
2022/12/04 06:49:36;;;;;;;39.95;27.95;;;;;;;2.31;100.00;93952.94;5110833;28;20047;-71
2022/12/04 06:52:02;;;;;;;34.40;25.80;;;;;;;2.45;100.00;93945.81;5110902;28;20046;-71
2022/12/04 06:54:29;;;;;;;33.50;25.20;;;;;;;2.50;100.00;93944.44;5111107;28;20051;-70
2022/12/04 06:56:56;;;;;;;33.65;25.48;;;;;;;2.63;100.00;93950.91;5111072;28;20491;-70
2022/12/04 06:59:23;;;;;;;38.55;29.10;;;;;;;2.73;100.00;93961.00;5111216;28;20097;-70
2022/12/04 07:01:49;;;;;;;36.10;29.70;;;;;;;2.84;100.00;93960.81;5110670;28;20035;-70
2022/12/04 07:04:17;;;;;;;41.53;31.85;;;;;;;2.93;100.00;93957.38;5110822;28;20047;-71
2022/12/04 07:06:44;;;;;;;51.78;36.85;;;;;;;3.08;100.00;93961.97;5110936;28;20051;-71
2022/12/04 07:09:14;;;;;;;45.55;31.98;;;;;;;3.24;100.00;93958.00;5110973;28;20047;-70
2022/12/04 07:11:42;;;;;;;38.72;28.40;;;;;;;3.32;100.00;93963.94;5110788;27;20047;-70
2022/12/04 07:14:09;;;;;;;32.03;23.67;;;;;;;3.45;100.00;93963.56;5109516;28;20437;-70
2022/12/04 07:16:36;;;;;;;36.13;25.50;;;;;;;3.52;100.00;93955.38;5108778;28;20100;-70
2022/12/04 07:19:03;;;;;;;30.20;21.98;;;;;;;3.68;100.00;93965.66;5110525;28;20101;-70
2022/12/04 07:21:33;;;;;;;28.05;21.67;;;;;;;3.77;100.00;93970.78;5110666;28;20043;-70
2022/12/04 07:24:01;;;;;;;28.65;24.30;;;;;;;3.86;100.00;93978.31;5110477;27;20504;-70
2022/12/04 07:26:29;;;;;;;31.73;26.23;;;;;;;3.95;100.00;93984.25;5110213;28;20494;-71
2022/12/04 07:28:57;;;;;;;33.30;23.85;;;;;;;4.04;100.00;93971.56;5110699;28;20048;-70
2022/12/04 07:31:25;;;;;;;30.55;20.30;;;;;;;4.03;100.00;93964.91;5105285;28;20051;-71
2022/12/04 07:33:53;;;;;;;27.25;19.83;;;;;;;3.99;100.00;93966.94;5110576;28;20374;-70
2022/12/04 07:36:21;;;;;;;28.75;19.70;;;;;;;3.98;100.00;93972.97;5096453;28;20448;-71
2022/12/04 07:38:51;;;;;;;30.60;21.92;;;;;;;4.02;100.00;93984.44;5106678;28;20510;-71
2022/12/04 07:41:19;;;;;;;31.67;22.75;;;;;;;4.09;100.00;93975.28;5107977;28;20039;-70
2022/12/04 07:43:45;;;;;;;37.03;25.95;;;;;;;4.09;100.00;93971.94;5109993;28;20112;-70
2022/12/04 07:46:14;;;;;;;34.53;24.02;;;;;;;4.14;100.00;93975.63;5110487;28;20048;-68
2022/12/04 07:48:42;;;;;;;37.05;24.63;;;;;;;4.21;100.00;93978.34;5109824;28;20044;-68
2022/12/04 07:51:14;;;;;;;38.90;25.70;;;;;;;4.24;100.00;93961.97;5109788;28;20092;-68
2022/12/04 07:53:41;;;;;;;31.90;21.25;;;;;;;4.36;100.00;93957.44;5109864;28;20444;-68
2022/12/04 07:56:11;;;;;;;24.10;16.23;;;;;;;4.43;100.00;93950.78;5110228;28;20084;-68
2022/12/04 07:58:38;;;;;;;13.80;11.68;;;;;;;4.47;100.00;93966.53;5109811;28;20738;-68
2022/12/04 08:01:07;;;;;;;16.95;13.07;;;;;;;4.44;100.00;93975.25;5110048;28;20108;-68
2022/12/04 08:03:34;;;;;;;15.80;11.93;;;;;;;4.37;100.00;93981.91;5110086;28;20051;-68
2022/12/04 08:06:01;;;;;;;16.40;13.27;;;;;;;4.35;100.00;93978.75;5110343;28;20131;-68
2022/12/04 08:08:28;;;;;;;17.67;13.27;;;;;;;4.43;100.00;93973.69;5109900;28;20059;-68
2022/12/04 08:10:55;;;;;;;20.45;16.05;;;;;;;4.52;100.00;93966.88;5110204;28;20483;-68
2022/12/04 08:13:32;;;;;;;25.83;18.60;;;;;;;4.51;100.00;93950.81;5109600;28;20483;-70
2022/12/04 08:16:01;;;;;;;20.05;16.23;;;;;;;4.58;100.00;93971.34;5108920;28;20108;-70
2022/12/04 08:18:28;;;;;;;20.05;15.65;;;;;;;4.52;100.00;93969.41;5109150;28;20082;-70
2022/12/04 08:20:55;;;;;;;17.17;13.55;;;;;;;4.50;100.00;93974.66;5110212;28;20048;-70
2022/12/04 08:23:21;;;;;;;18.02;13.77;;;;;;;4.50;100.00;93966.25;5109512;28;20040;-70
2022/12/04 08:25:48;;;;;;;18.20;13.63;;;;;;;4.52;100.00;93967.69;5109860;28;20055;-70
2022/12/04 08:28:15;;;;;;;20.65;14.95;;;;;;;4.65;100.00;93958.81;5106724;28;20101;-70
2022/12/04 08:30:43;;;;;;;18.65;14.20;;;;;;;4.66;100.00;93970.56;5108631;28;20055;-70
2022/12/04 08:33:09;;;;;;;17.05;14.93;;;;;;;4.65;100.00;93957.06;5106380;28;20052;-70
2022/12/04 08:35:36;;;;;;;24.80;19.10;;;;;;;4.72;100.00;93962.31;5109662;28;20051;-70
2022/12/04 08:38:03;;;;;;;17.08;14.25;;;;;;;4.68;100.00;93955.97;5109461;28;20101;-71
2022/12/04 08:40:30;;;;;;;15.43;13.02;;;;;;;4.65;100.00;93952.00;5109712;28;20047;-70
2022/12/04 08:42:56;;;;;;;17.05;14.25;;;;;;;4.70;100.00;93954.06;5109289;28;20419;-70
2022/12/04 08:45:23;;;;;;;20.98;15.95;;;;;;;4.77;100.00;93952.47;5108831;28;20052;-70
2022/12/04 08:47:51;;;;;;;18.67;14.65;;;;;;;4.92;100.00;93956.97;5109762;28;20104;-70
2022/12/04 08:50:18;;;;;;;21.05;15.98;;;;;;;5.02;100.00;93967.81;5109796;28;20056;-70
2022/12/04 08:52:44;;;;;;;16.75;12.88;;;;;;;5.00;100.00;93967.16;5109401;28;20043;-70
2022/12/04 08:55:11;;;;;;;17.92;13.00;;;;;;;4.92;100.00;93962.06;5109786;28;20543;-70
2022/12/04 08:57:38;;;;;;;17.45;13.60;;;;;;;5.01;100.00;93945.88;5109594;28;20126;-70
2022/12/04 09:00:06;;;;;;;19.05;13.95;;;;;;;5.05;100.00;93943.81;5111171;28;20089;-70
2022/12/04 09:02:33;;;;;;;18.02;13.15;;;;;;;5.15;100.00;93949.56;5112957;28;20051;-70
2022/12/04 09:05:04;;;;;;;18.98;13.60;;;;;;;5.17;100.00;93916.25;5112938;28;20563;-70
2022/12/04 09:07:31;;;;;;;17.00;12.20;;;;;;;5.34;100.00;93935.69;5113231;28;20043;-70
2022/12/04 09:09:57;;;;;;;16.25;12.15;;;;;;;5.51;100.00;93934.91;5112850;28;20055;-71
2022/12/04 09:12:24;;;;;;;11.55;9.20;;;;;;;5.46;100.00;93936.16;5113059;28;20085;-70
2022/12/04 09:14:51;;;;;;;13.07;10.18;;;;;;;5.57;100.00;93936.81;5113153;28;20140;-70
2022/12/04 09:17:17;;;;;;;14.25;9.85;;;;;;;5.58;100.00;93935.84;5112521;28;20093;-68
2022/12/04 09:19:44;;;;;;;15.00;11.00;;;;;;;5.62;100.00;93924.38;5112659;28;20647;-68
2022/12/04 09:22:12;;;;;;;16.45;11.00;;;;;;;5.82;100.00;93914.63;5112880;28;20076;-69
2022/12/04 09:24:39;;;;;;;15.48;11.23;;;;;;;5.92;100.00;93926.41;5112607;28;20060;-69
2022/12/04 09:27:06;;;;;;;14.27;10.35;;;;;;;5.87;100.00;93920.03;5112216;28;20081;-69
2022/12/04 09:29:32;;;;;;;12.45;9.27;;;;;;;6.02;100.00;93916.84;5112738;27;20048;-69
2022/12/04 09:31:59;;;;;;;14.20;9.40;;;;;;;6.13;100.00;93921.59;5100689;28;20048;-69
2022/12/04 09:34:26;;;;;;;15.60;9.85;;;;;;;6.33;100.00;93917.84;5112165;28;20538;-69
2022/12/04 09:36:52;;;;;;;13.75;10.15;;;;;;;6.44;100.00;93920.06;5112694;28;20104;-69
2022/12/04 09:39:20;;;;;;;13.02;9.20;;;;;;;6.54;100.00;93909.66;5111557;27;20415;-69
2022/12/04 09:42:06;;;;;;;15.18;10.75;;;;;;;6.74;100.00;93893.88;5111079;28;20445;-69
2022/12/04 09:44:35;;;;;;;;;;;;;;;6.84;100.00;93891.91;5112950;28;20168;-69
2022/12/04 09:47:04;;;;;;;13.00;9.25;;;;;;;7.04;100.00;93892.25;5112181;28;19962;-69
2022/12/04 09:49:36;;;;;;;14.02;8.43;;;;;;;7.21;100.00;93892.13;5112020;28;20047;-69
2022/12/04 09:52:09;;;;;;;11.75;7.93;;;;;;;7.31;100.00;93886.81;5112308;28;20113;-69
2022/12/04 09:54:42;;;;;;;8.88;6.35;;;;;;;7.31;100.00;93879.94;5112374;28;20047;-69
2022/12/04 09:57:17;;;;;;;9.70;6.82;;;;;;;7.13;100.00;93880.22;5112395;28;20055;-69
2022/12/04 09:59:45;;;;;;;8.57;6.75;;;;;;;7.20;100.00;93888.00;5111824;28;20052;-69
2022/12/04 10:02:31;;;;;;;8.15;6.05;;;;;;;7.35;100.00;93882.94;5112503;28;20108;-69
2022/12/04 10:04:58;;;;;;;6.78;5.22;;;;;;;7.44;100.00;93883.66;5111916;28;20119;-68
2022/12/04 10:07:29;;;;;;;10.20;7.47;;;;;;;7.52;100.00;93870.81;5111919;28;20043;-69
2022/12/04 10:10:02;;;;;;;7.43;4.47;;;;;;;7.63;100.00;93872.13;5111658;28;20047;-69
2022/12/04 10:12:38;;;;;;;6.65;4.75;;;;;;;7.74;100.00;93871.69;5111563;28;20101;-69
2022/12/04 10:15:19;;;;;;;6.63;5.00;;;;;;;7.88;100.00;93871.91;5111877;28;20108;-69
2022/12/04 10:18:03;;;;;;;9.40;5.45;;;;;;;8.05;100.00;93869.94;5111472;28;20048;-69
2022/12/04 10:20:46;;;;;;;11.15;5.88;;;;;;;8.29;100.00;93852.72;5111547;28;20097;-69
2022/12/04 10:23:24;;;;;;;7.65;5.10;;;;;;;8.38;100.00;93850.88;5111459;28;20043;-69
2022/12/04 10:25:55;;;;;;;6.50;4.38;;;;;;;8.54;100.00;93848.13;5111267;28;20487;-69
2022/12/04 10:28:30;;;;;;;6.85;5.00;;;;;;;8.62;100.00;93849.78;5111326;28;20457;-69
2022/12/04 10:31:01;;;;;;;6.68;4.97;;;;;;;8.62;100.00;93844.66;5107931;28;20097;-69
2022/12/04 10:33:36;;;;;;;7.35;5.05;;;;;;;8.72;100.00;93830.75;5102895;28;20054;-69
2022/12/04 10:36:04;;;;;;;7.53;5.55;;;;;;;8.77;100.00;93828.44;5111554;28;20047;-69
2022/12/04 10:38:38;;;;;;;6.32;4.13;;;;;;;8.85;100.00;93830.06;5111303;28;20059;-69
2022/12/04 10:41:12;;;;;;;6.97;4.88;;;;;;;9.02;100.00;93828.84;5110905;28;20347;-69
2022/12/04 10:43:43;;;;;;;7.28;4.97;;;;;;;9.12;100.00;93827.75;5111255;28;20043;-69
2022/12/04 10:46:14;;;;;;;9.98;5.90;;;;;;;9.21;100.00;93822.31;5111122;28;20096;-69
2022/12/04 10:48:42;;;;;;;7.35;5.15;;;;;;;9.31;100.00;93814.28;5111089;28;20540;-69
2022/12/04 10:51:15;;;;;;;6.43;4.60;;;;;;;9.19;100.00;93823.47;5111210;28;20171;-69
2022/12/04 10:53:41;;;;;;;6.68;5.03;;;;;;;9.03;100.00;93829.66;5111007;28;20095;-69
2022/12/04 10:56:11;;;;;;;7.28;5.57;;;;;;;9.15;100.00;93819.69;5110762;28;20062;-69
2022/12/04 10:58:38;;;;;;;5.68;4.50;;;;;;;9.14;100.00;93828.34;5111074;28;20051;-69
2022/12/04 11:01:07;;;;;;;7.97;5.47;;;;;;;9.28;100.00;93824.13;5111097;28;20503;-69
2022/12/04 11:03:34;;;;;;;9.80;6.45;;;;;;;9.28;100.00;93801.84;5111036;28;20043;-69
2022/12/04 11:06:03;;;;;;;6.32;4.53;;;;;;;9.25;100.00;93804.78;5111228;28;20384;-69
2022/12/04 11:08:35;;;;;;;5.97;4.78;;;;;;;9.34;100.00;93797.72;5110813;28;20457;-69
2022/12/04 11:11:05;;;;;;;6.35;4.88;;;;;;;9.25;100.00;93801.44;5110735;28;20051;-69
2022/12/04 11:13:33;;;;;;;6.47;4.40;;;;;;;9.29;100.00;93802.63;5110584;28;20043;-69
2022/12/04 11:16:00;;;;;;;7.07;5.43;;;;;;;9.47;100.00;93804.72;5110580;28;20047;-69
2022/12/04 11:18:29;;;;;;;5.70;3.60;;;;;;;9.35;100.00;93807.81;5110287;28;20104;-69
2022/12/04 11:20:58;;;;;;;7.28;3.83;;;;;;;9.28;100.00;93803.59;5110806;28;20044;-69
2022/12/04 11:23:26;;;;;;;6.43;4.50;;;;;;;9.34;100.00;93802.84;5109844;28;20564;-69
2022/12/04 11:25:55;;;;;;;7.63;4.72;;;;;;;9.57;100.00;93806.94;5110587;28;20044;-69
2022/12/04 11:28:27;;;;;;;7.07;4.90;;;;;;;9.71;100.00;93797.56;5110498;28;20089;-69
2022/12/04 11:30:58;;;;;;;7.93;5.10;;;;;;;9.83;100.00;93798.63;5107529;28;20082;-69
2022/12/04 11:33:29;;;;;;;7.03;4.28;;;;;;;9.87;100.00;93804.94;5101983;28;20059;-70
2022/12/04 11:36:00;;;;;;;6.85;4.97;;;;;;;9.87;100.00;93804.94;5110698;28;20099;-70
2022/12/04 11:38:29;;;;;;;6.13;4.32;;;;;;;9.74;100.00;93810.00;5106692;28;20464;-70
2022/12/04 11:40:57;;;;;;;8.00;4.80;;;;;;;9.74;100.00;93810.00;5109471;28;20048;-69
2022/12/04 11:43:28;;;;;;;7.38;5.05;;;;;;;9.71;100.00;93811.19;5107043;28;20492;-70
2022/12/04 11:45:58;;;;;;;13.13;8.10;;;;;;;9.71;100.00;93808.63;5107347;28;20530;-70